Dublin, Ireland

2:52 PM GMT on December 19, 2014 (GMT +0000)
Paulie - Swords West | Change Station
CLOSE
Current Station
Personal Weather Station
Location: Swords, DUBLIN
Elevation: 138 ft
Nearby Weather Stations

Elev 138 ft 53.46 °N, 6.25 °W | Updated 0 second ago

Scattered Clouds
Scattered Clouds
46.6 °F
Feels Like 45 °F
N
3.4
Wind Variable Wind from SW
Gusts 7.4 mph

Today
High -- | Low -- °F
--% Chance of Precip.
Yesterday
High -- | Low -- °F
Precip. -- in
8:37 AM 4:06 PM
Waning Crescent, 7% visible
Pressure 29.98 in
Visibility 6.2 miles
Clouds Few 1900 ft
Scattered Clouds 3500 ft
Windchill 45 °F
Dew Point 39 °F
Humidity 74%
Rainfall 0.00 in
Snow Depth Not available.
UV 0.0 out of 12
Pollen Not available.
Air Quality Not available.
Flu Activity Not available.
METAR EIDW 191430Z 26021KT 9999 FEW019 SCT035 07/03 Q1015 WS RWY28 NOSIG

More Conditions Fewer Conditions

Pressure 29.98 in
Visibility 6.2 miles
Clouds Few 1900 ft
Scattered Clouds 3500 ft
Windchill 45 °F
Dew Point 39 °F
Humidity 74%
Rainfall 0.00 in
Snow Depth Not available.
UV 0.0 out of 12
Pollen Not available.
Air Quality Not available.
Flu Activity Not available.
METAR EIDW 191430Z 26021KT 9999 FEW019 SCT035 07/03 Q1015 WS RWY28 NOSIG

More Conditions Fewer Conditions

10-Day Weather Forecast

Almanac

Astronomy

Dec. 19, 2014 Rise Set
Actual Time
Civil Twilight
Nautical Twilight
Astronomical Twilight
Moon
Length of Visible Light
Length of Day
Tomorrow will be .
, % of the Moon is Illuminated

Today's Extremes

Country Highs Country Lows

Community

WunderPhotos

Upload Photos

1,778,988 photos uploaded!

WunderBlogs® & News

Nearby

Air Quality

  Air Quality AQ Index Pollutant
Not available.

Snow Depth

Station Depth Elevation

Earthquake Activity

City Distance Mag. Time & Date
Minimum magnitude displayed is 2.5.

Coastal Water Temperatures

Place Temperature

Nearby Weather Stations